createdAt,value
2022-12-04T00:02:41.901Z,25.38
2022-12-04T00:05:44.179Z,23.05
2022-12-04T00:08:46.849Z,23.73
2022-12-04T00:11:49.032Z,22.35
2022-12-04T00:15:24.025Z,21.92
2022-12-04T00:18:13.950Z,21.10
2022-12-04T00:21:17.282Z,20.42
2022-12-04T00:24:20.128Z,23.35
2022-12-04T00:27:23.025Z,21.58
2022-12-04T00:30:25.561Z,21.05
2022-12-04T00:33:27.992Z,20.92
2022-12-04T00:36:30.240Z,21.48
2022-12-04T00:39:33.969Z,21.48
2022-12-04T00:42:36.709Z,22.17
2022-12-04T00:45:39.126Z,24.65
2022-12-04T00:48:41.773Z,24.90
2022-12-04T00:51:45.169Z,22.85
2022-12-04T00:54:47.723Z,21.13
2022-12-04T00:57:52.065Z,23.48
2022-12-04T01:00:56.244Z,23.00
2022-12-04T01:03:58.507Z,24.98
2022-12-04T01:07:04.994Z,22.30
2022-12-04T01:10:07.559Z,21.20
2022-12-04T01:13:09.685Z,23.05
2022-12-04T01:16:12.220Z,23.92
2022-12-04T01:19:15.065Z,24.52
2022-12-04T01:22:17.847Z,24.10
2022-12-04T01:25:21.447Z,24.20
2022-12-04T01:28:24.943Z,22.75
2022-12-04T01:31:28.410Z,23.48
2022-12-04T01:34:31.503Z,23.38
2022-12-04T01:37:34.106Z,21.85
2022-12-04T01:40:37.114Z,21.92
2022-12-04T01:43:39.807Z,22.95
2022-12-04T01:46:42.270Z,23.70
2022-12-04T01:49:45.206Z,22.10
2022-12-04T01:52:47.791Z,24.55
2022-12-04T01:55:49.934Z,23.02
2022-12-04T01:58:53.119Z,24.80
2022-12-04T02:01:56.209Z,24.27
2022-12-04T02:04:59.651Z,26.80
2022-12-04T02:08:01.827Z,25.90
2022-12-04T02:11:04.161Z,24.48
2022-12-04T02:14:07.291Z,24.98
2022-12-04T02:17:10.681Z,24.58
2022-12-04T02:20:12.923Z,25.20
2022-12-04T02:23:15.450Z,24.83
2022-12-04T02:26:17.997Z,25.00
2022-12-04T02:29:21.205Z,23.90
2022-12-04T02:32:24.414Z,23.00
2022-12-04T02:35:27.450Z,25.65
2022-12-04T02:38:30.598Z,24.05
2022-12-04T02:41:33.435Z,24.48
2022-12-04T02:44:36.071Z,24.00
2022-12-04T02:47:38.617Z,22.38
2022-12-04T02:50:41.708Z,22.88
2022-12-04T02:53:44.211Z,23.60
2022-12-04T02:56:46.500Z,26.13
2022-12-04T02:59:48.963Z,26.20
2022-12-04T03:02:52.254Z,26.10
2022-12-04T03:05:55.190Z,24.73
2022-12-04T03:08:57.573Z,24.50
2022-12-04T03:12:00.442Z,26.08
2022-12-04T03:15:03.417Z,25.10
2022-12-04T03:18:06.267Z,27.48
2022-12-04T03:21:08.922Z,26.13
2022-12-04T03:24:12.257Z,23.67
2022-12-04T03:27:15.081Z,24.33
2022-12-04T03:30:17.471Z,23.80
2022-12-04T03:33:19.836Z,23.55
2022-12-04T03:36:22.071Z,22.90
2022-12-04T03:39:24.866Z,25.35
2022-12-04T03:42:27.759Z,22.88
2022-12-04T03:45:30.654Z,24.55
2022-12-04T03:48:33.418Z,24.27
2022-12-04T03:51:36.271Z,23.65
2022-12-04T03:54:38.750Z,23.48
2022-12-04T03:57:41.190Z,24.85
2022-12-04T04:00:43.855Z,25.92
2022-12-04T04:03:46.627Z,25.38
2022-12-04T04:06:49.501Z,25.98
2022-12-04T04:09:52.288Z,24.80
2022-12-04T04:12:55.137Z,25.73
2022-12-04T04:15:57.871Z,25.70
2022-12-04T04:19:00.934Z,23.77
2022-12-04T04:22:03.357Z,26.17
2022-12-04T04:25:06.019Z,23.52
2022-12-04T04:28:08.625Z,25.63
2022-12-04T04:31:10.829Z,24.38
2022-12-04T04:34:13.693Z,23.35
2022-12-04T04:37:16.422Z,24.10
2022-12-04T04:40:19.591Z,23.90
2022-12-04T04:43:22.528Z,24.90
2022-12-04T04:46:25.591Z,22.88
2022-12-04T04:49:28.479Z,24.70
2022-12-04T04:52:31.412Z,23.15
2022-12-04T04:55:33.843Z,23.17
2022-12-04T04:58:36.958Z,23.00
2022-12-04T05:01:39.569Z,25.02
2022-12-04T05:04:42.337Z,24.25
2022-12-04T05:07:44.608Z,24.13
2022-12-04T05:10:47.399Z,25.55
2022-12-04T05:13:50.324Z,24.05
2022-12-04T05:16:52.876Z,25.13
2022-12-04T05:19:55.865Z,26.80
2022-12-04T05:22:58.737Z,26.10
2022-12-04T05:26:01.323Z,25.33
2022-12-04T05:29:03.855Z,26.77
2022-12-04T05:32:06.784Z,25.25
2022-12-04T05:35:11.577Z,25.35
2022-12-04T05:38:14.283Z,23.98
2022-12-04T05:41:16.514Z,25.83
2022-12-04T05:44:18.725Z,24.63
2022-12-04T05:47:21.309Z,23.95
2022-12-04T05:50:23.521Z,23.45
2022-12-04T05:53:25.695Z,23.35
2022-12-04T05:56:28.262Z,26.08
2022-12-04T05:59:30.553Z,22.85
2022-12-04T06:02:32.897Z,25.75
2022-12-04T06:05:35.811Z,24.00
2022-12-04T06:08:38.585Z,24.45
2022-12-04T06:11:41.502Z,25.08
2022-12-04T06:14:44.700Z,24.25
2022-12-04T06:17:47.109Z,24.50
2022-12-04T06:20:49.785Z,25.88
2022-12-04T06:23:52.450Z,26.58
2022-12-04T06:27:26.271Z,25.48
2022-12-04T06:30:17.839Z,23.27
2022-12-04T06:33:20.212Z,23.45
2022-12-04T06:36:23.873Z,23.92
2022-12-04T06:39:27.004Z,23.55
2022-12-04T06:42:29.831Z,24.00
2022-12-04T06:45:32.492Z,24.00
2022-12-04T06:48:34.676Z,23.63
2022-12-04T06:51:37.201Z,22.80
2022-12-04T06:54:40.095Z,24.08
2022-12-04T06:57:43.554Z,21.50
2022-12-04T07:00:46.483Z,22.30
2022-12-04T07:03:51.512Z,22.42
2022-12-04T07:06:54.680Z,24.42
2022-12-04T07:09:57.876Z,22.17
2022-12-04T07:13:00.088Z,23.17
2022-12-04T07:16:03.053Z,24.05
2022-12-04T07:19:06.298Z,22.50
2022-12-04T07:22:09.532Z,23.33
2022-12-04T07:25:11.969Z,23.67
2022-12-04T07:28:14.664Z,24.38
2022-12-04T07:31:17.110Z,23.40
2022-12-04T07:34:19.838Z,23.25
2022-12-04T07:37:22.452Z,23.63
2022-12-04T07:40:24.651Z,22.35
2022-12-04T07:43:27.351Z,21.77
2022-12-04T07:46:29.760Z,22.05
2022-12-04T07:49:32.880Z,22.15
2022-12-04T07:52:35.440Z,21.40
2022-12-04T07:55:38.362Z,22.25
2022-12-04T07:58:41.393Z,22.70
2022-12-04T08:01:44.341Z,20.23
2022-12-04T08:04:47.061Z,21.42
2022-12-04T08:07:49.883Z,21.50
2022-12-04T08:10:52.916Z,21.90
2022-12-04T08:13:56.153Z,20.77
2022-12-04T08:16:59.079Z,22.55
2022-12-04T08:20:01.522Z,23.50
2022-12-04T08:23:04.373Z,24.58
2022-12-04T08:26:07.232Z,21.13
2022-12-04T08:29:09.654Z,22.85
2022-12-04T08:32:12.292Z,21.95
2022-12-04T08:35:14.541Z,24.98
2022-12-04T08:38:17.523Z,23.30
2022-12-04T08:41:20.250Z,23.77
2022-12-04T08:44:23.098Z,22.88
2022-12-04T08:47:25.306Z,20.25
2022-12-04T08:50:28.253Z,22.77
2022-12-04T08:53:31.538Z,22.88
2022-12-04T08:56:34.349Z,21.10
2022-12-04T08:59:36.967Z,21.08
2022-12-04T09:02:39.275Z,20.25
2022-12-04T09:05:42.240Z,21.38
2022-12-04T09:08:44.611Z,22.17
2022-12-04T09:11:47.063Z,20.20
2022-12-04T09:14:50.091Z,20.85
2022-12-04T09:17:53.401Z,22.13
2022-12-04T09:20:57.213Z,21.42
2022-12-04T09:24:01.044Z,20.98
2022-12-04T09:27:03.640Z,20.75
2022-12-04T09:30:07.016Z,22.30
2022-12-04T09:33:09.899Z,23.00
2022-12-04T09:36:12.707Z,21.50
2022-12-04T09:39:15.371Z,23.67
2022-12-04T09:42:18.034Z,23.58
2022-12-04T09:45:20.667Z,19.58
2022-12-04T09:48:23.141Z,21.08
2022-12-04T09:51:25.983Z,20.45
2022-12-04T09:54:28.812Z,20.40
2022-12-04T09:57:31.730Z,19.10
2022-12-04T10:00:34.335Z,20.35
2022-12-04T10:03:37.057Z,18.38
2022-12-04T10:06:39.331Z,20.70
2022-12-04T10:09:41.853Z,19.92
2022-12-04T10:12:44.952Z,19.50
2022-12-04T10:15:48.086Z,17.60
2022-12-04T10:18:50.832Z,19.50
2022-12-04T10:21:53.261Z,17.75
2022-12-04T10:24:56.156Z,19.25
2022-12-04T10:27:58.592Z,18.02
2022-12-04T10:31:01.288Z,18.30
2022-12-04T10:34:03.982Z,19.15
2022-12-04T10:37:06.442Z,20.33
2022-12-04T10:40:09.608Z,19.17
2022-12-04T10:43:12.569Z,18.20
2022-12-04T10:46:14.706Z,19.08
2022-12-04T10:49:16.857Z,18.52
2022-12-04T10:52:19.563Z,18.02
2022-12-04T10:55:23.029Z,19.60
2022-12-04T10:58:25.890Z,18.58
2022-12-04T11:01:29.156Z,16.10
2022-12-04T11:04:32.103Z,16.23
2022-12-04T11:07:34.610Z,16.63
2022-12-04T11:10:37.510Z,16.05
2022-12-04T11:13:40.451Z,14.68
2022-12-04T11:16:43.629Z,15.43
2022-12-04T11:19:46.571Z,15.40
2022-12-04T11:22:49.205Z,15.95
2022-12-04T11:25:51.844Z,14.40
2022-12-04T11:28:54.512Z,13.68
2022-12-04T11:31:58.587Z,14.52
2022-12-04T11:35:02.814Z,14.98
2022-12-04T11:38:05.251Z,14.32
2022-12-04T11:41:08.149Z,14.00
2022-12-04T11:44:11.586Z,14.48
2022-12-04T11:47:14.122Z,14.68
2022-12-04T11:50:17.369Z,13.45
2022-12-04T11:53:19.835Z,14.48
2022-12-04T11:56:22.797Z,14.05
2022-12-04T11:59:26.054Z,14.73
2022-12-04T12:02:28.942Z,12.52
2022-12-04T12:05:32.176Z,14.30
2022-12-04T12:08:35.070Z,14.63
2022-12-04T12:11:37.296Z,12.55
2022-12-04T12:14:39.933Z,14.32
2022-12-04T12:17:42.579Z,12.48
2022-12-04T12:20:44.502Z,12.73
2022-12-04T12:23:47.404Z,11.40
2022-12-04T12:26:50.118Z,11.30
2022-12-04T12:29:53.001Z,11.73
2022-12-04T12:32:55.759Z,11.05
2022-12-04T12:35:58.366Z,11.07
2022-12-04T12:39:00.542Z,11.13
2022-12-04T12:42:03.479Z,11.32
2022-12-04T12:45:06.061Z,9.70
2022-12-04T12:48:08.671Z,12.18
2022-12-04T12:54:33.744Z,10.02
2022-12-04T12:57:36.562Z,10.98
2022-12-04T13:00:39.156Z,11.30
2022-12-04T13:03:41.836Z,10.80
2022-12-04T13:06:43.777Z,10.73
2022-12-04T13:09:46.656Z,11.10
2022-12-04T13:12:50.134Z,12.85
2022-12-04T13:15:53.068Z,11.35
2022-12-04T13:18:55.908Z,11.13
2022-12-04T13:21:58.803Z,10.30
2022-12-04T13:25:01.378Z,9.60
2022-12-04T13:28:03.689Z,9.50
2022-12-04T13:31:06.371Z,9.82
2022-12-04T13:34:08.606Z,9.55
2022-12-04T13:37:11.280Z,9.52
2022-12-04T13:40:13.913Z,9.68
2022-12-04T13:43:16.438Z,10.73
2022-12-04T13:46:19.696Z,10.48
2022-12-04T13:49:22.681Z,7.88
2022-12-04T13:52:26.070Z,9.55
2022-12-04T13:55:28.905Z,10.02
2022-12-04T13:58:31.829Z,9.02
2022-12-04T14:01:35.085Z,9.80
2022-12-04T14:04:37.747Z,10.05
2022-12-04T14:07:39.836Z,11.25
2022-12-04T14:10:42.632Z,10.10
2022-12-04T14:13:45.506Z,9.85
2022-12-04T14:16:48.370Z,10.07
2022-12-04T14:19:51.890Z,9.90
2022-12-04T14:22:55.434Z,10.80
2022-12-04T14:25:58.105Z,10.05
2022-12-04T14:29:00.811Z,10.50
2022-12-04T14:32:03.766Z,10.07
2022-12-04T14:35:06.883Z,10.18
2022-12-04T14:38:09.756Z,9.70
2022-12-04T14:41:12.930Z,10.45
2022-12-04T14:44:16.126Z,10.23
2022-12-04T14:47:18.972Z,10.55
2022-12-04T14:50:22.049Z,10.70
2022-12-04T14:53:25.893Z,9.75
2022-12-04T14:56:28.790Z,9.30
2022-12-04T14:59:30.957Z,11.80
2022-12-04T15:02:33.717Z,11.45
2022-12-04T15:05:35.881Z,9.95
2022-12-04T15:08:38.621Z,11.25
2022-12-04T15:11:40.808Z,11.45
2022-12-04T15:14:43.747Z,10.93
2022-12-04T15:17:46.452Z,10.68
2022-12-04T15:20:49.353Z,10.57
2022-12-04T15:23:52.290Z,10.85
2022-12-04T15:26:55.066Z,12.93
2022-12-04T15:29:57.409Z,13.02
2022-12-04T15:32:59.955Z,11.68
2022-12-04T15:36:02.351Z,11.70
2022-12-04T15:39:04.900Z,14.07
2022-12-04T15:42:07.018Z,12.30
2022-12-04T15:45:09.172Z,14.27
2022-12-04T15:48:11.804Z,13.20
2022-12-04T15:51:14.776Z,11.95
2022-12-04T15:54:19.040Z,12.68
2022-12-04T15:57:21.893Z,12.45
2022-12-04T16:00:25.087Z,12.80
2022-12-04T16:03:28.079Z,12.10
2022-12-04T16:06:31.181Z,12.80
2022-12-04T16:09:34.625Z,12.25
2022-12-04T16:12:36.870Z,12.73
2022-12-04T16:15:39.891Z,11.30
2022-12-04T16:18:42.746Z,12.82
2022-12-04T16:21:45.995Z,13.77
2022-12-04T16:24:48.190Z,12.20
2022-12-04T16:27:50.799Z,14.00
2022-12-04T16:30:53.465Z,13.90
2022-12-04T16:33:56.133Z,12.32
2022-12-04T16:36:58.777Z,14.10
2022-12-04T16:40:01.717Z,13.65
2022-12-04T16:43:04.644Z,14.60
2022-12-04T16:46:07.263Z,14.40
2022-12-04T16:49:10.298Z,15.13
2022-12-04T16:52:13.923Z,14.70
2022-12-04T16:55:17.107Z,14.57
2022-12-04T16:58:19.614Z,14.65
2022-12-04T17:01:22.397Z,13.43
2022-12-04T17:04:26.305Z,13.10
2022-12-04T17:07:29.345Z,14.13
2022-12-04T17:10:32.310Z,11.82
2022-12-04T17:13:35.218Z,12.95
2022-12-04T17:16:38.253Z,12.55
2022-12-04T17:19:41.262Z,13.73
2022-12-04T17:22:44.191Z,13.23
2022-12-04T17:25:46.959Z,14.15
2022-12-04T17:28:49.496Z,12.73
2022-12-04T17:31:52.209Z,13.43
2022-12-04T17:34:55.515Z,13.20
2022-12-04T17:38:05.460Z,12.75
2022-12-04T17:41:08.352Z,11.98
2022-12-04T17:44:10.778Z,13.73
2022-12-04T17:47:13.711Z,15.10
2022-12-04T17:50:16.676Z,13.23
2022-12-04T17:53:19.327Z,14.95
2022-12-04T17:56:22.001Z,13.75
2022-12-04T17:59:25.175Z,13.63
2022-12-04T18:02:27.999Z,13.80
2022-12-04T18:05:30.662Z,13.48
2022-12-04T18:08:32.984Z,14.05
2022-12-04T18:11:35.843Z,12.88
2022-12-04T18:14:38.944Z,14.10
2022-12-04T18:17:41.972Z,12.77
2022-12-04T18:20:44.372Z,13.25
2022-12-04T18:23:46.949Z,11.40
2022-12-04T18:26:49.364Z,13.00
2022-12-04T18:29:51.949Z,11.68
2022-12-04T18:32:54.512Z,12.43
2022-12-04T18:35:57.154Z,11.55
2022-12-04T18:39:00.001Z,11.77
2022-12-04T18:42:03.294Z,13.02
2022-12-04T18:45:06.328Z,13.20
2022-12-04T18:48:08.832Z,13.60
2022-12-04T18:51:11.283Z,12.82
2022-12-04T18:54:13.474Z,14.00
2022-12-04T18:57:16.091Z,12.43
2022-12-04T19:00:18.976Z,13.10
2022-12-04T19:03:22.199Z,12.48
2022-12-04T19:06:25.667Z,12.63
2022-12-04T19:10:08.935Z,14.95
2022-12-04T19:12:51.927Z,13.98
2022-12-04T19:15:54.318Z,11.38
2022-12-04T19:18:56.453Z,13.15
2022-12-04T19:21:58.563Z,12.07
2022-12-04T19:25:01.201Z,12.77
2022-12-04T19:28:03.921Z,12.60
2022-12-04T19:31:06.508Z,12.65
2022-12-04T19:34:09.363Z,12.73
2022-12-04T19:37:11.747Z,12.98
2022-12-04T19:40:15.033Z,12.90
2022-12-04T19:43:17.507Z,12.95
2022-12-04T19:46:20.253Z,14.98
2022-12-04T19:49:23.316Z,13.38
2022-12-04T19:52:26.177Z,13.48
2022-12-04T19:55:28.501Z,14.65
2022-12-04T19:58:31.824Z,14.07
2022-12-04T20:01:34.526Z,12.10
2022-12-04T20:04:37.249Z,14.63
2022-12-04T20:07:39.538Z,14.05
2022-12-04T20:10:42.191Z,14.90
2022-12-04T20:13:44.440Z,15.30
2022-12-04T20:16:47.275Z,15.25
2022-12-04T20:19:50.260Z,16.35
2022-12-04T20:22:53.182Z,15.68
2022-12-04T20:25:56.584Z,13.70
2022-12-04T20:28:59.907Z,13.63
2022-12-04T20:32:02.520Z,13.40
2022-12-04T20:35:05.075Z,13.98
2022-12-04T20:38:08.141Z,13.38
2022-12-04T20:41:11.809Z,14.07
2022-12-04T20:44:14.686Z,12.90
2022-12-04T20:47:17.205Z,13.35
2022-12-04T20:50:20.404Z,12.73
2022-12-04T20:53:23.207Z,14.93
2022-12-04T20:56:25.613Z,14.13
2022-12-04T20:59:28.368Z,14.00
2022-12-04T21:02:30.912Z,15.13
2022-12-04T21:05:34.114Z,14.18
2022-12-04T21:08:36.461Z,13.77
2022-12-04T21:11:38.800Z,14.45
2022-12-04T21:14:41.342Z,14.45
2022-12-04T21:17:43.939Z,16.20
2022-12-04T21:20:46.946Z,15.68
2022-12-04T21:23:49.634Z,15.38
2022-12-04T21:26:53.020Z,15.68
2022-12-04T21:29:56.264Z,15.80
2022-12-04T21:32:58.524Z,15.13
2022-12-04T21:36:00.887Z,15.68
2022-12-04T21:39:04.322Z,15.25
2022-12-04T21:42:06.823Z,14.48
2022-12-04T21:45:09.336Z,14.13
2022-12-04T21:48:11.538Z,12.82
2022-12-04T21:51:39.879Z,13.80
2022-12-04T21:54:36.227Z,13.13
2022-12-04T21:57:38.395Z,14.95
2022-12-04T22:00:41.224Z,14.90
2022-12-04T22:03:44.473Z,13.60
2022-12-04T22:06:47.809Z,15.30
2022-12-04T22:09:50.625Z,13.48
2022-12-04T22:12:53.967Z,14.70
2022-12-04T22:15:57.434Z,15.05
2022-12-04T22:18:59.731Z,16.52
2022-12-04T22:22:02.375Z,15.40
2022-12-04T22:25:04.494Z,16.08
2022-12-04T22:28:06.914Z,15.75
2022-12-04T22:31:09.758Z,14.68
2022-12-04T22:34:12.362Z,15.77
2022-12-04T22:37:15.245Z,15.35
2022-12-04T22:40:17.691Z,15.60
2022-12-04T22:43:20.474Z,15.68
2022-12-04T22:46:23.210Z,16.42
2022-12-04T22:49:26.586Z,14.75
2022-12-04T22:52:30.307Z,16.13
2022-12-04T22:55:32.804Z,14.85
2022-12-04T22:58:35.291Z,15.43
2022-12-04T23:01:38.178Z,13.85
2022-12-04T23:04:40.868Z,14.60
2022-12-04T23:07:44.649Z,14.50
2022-12-04T23:10:47.503Z,14.60
2022-12-04T23:13:50.455Z,14.18
2022-12-04T23:16:53.720Z,14.13
2022-12-04T23:19:57.355Z,13.75
2022-12-04T23:23:00.788Z,15.82
2022-12-04T23:26:03.735Z,14.38
2022-12-04T23:29:23.350Z,15.40
2022-12-04T23:32:28.654Z,15.00
2022-12-04T23:35:31.524Z,15.20
2022-12-04T23:38:33.666Z,16.80
2022-12-04T23:41:35.928Z,16.00
2022-12-04T23:44:38.496Z,15.05
2022-12-04T23:47:40.722Z,17.02
2022-12-04T23:50:43.310Z,16.10
2022-12-04T23:53:46.239Z,15.75
2022-12-04T23:56:49.394Z,16.67
2022-12-04T23:59:52.772Z,15.13
